Latest Weather Observations for Redcliffe

IDQ60901

Issued at 3:31 pm EST Thursday 29 June 2017 (issued every 10 minutes, with the page automatically refreshed every 10 minutes)

About weather observations | Map of Brisbane area stations | Latest observations for Brisbane area | Other Formats
Station Details ID: 040958 Name: REDCLIFFE Lat: -27.22 Lon: 153.09 Height: 12.6 m
Data from the previous 72 hours. | See also: Recent months at Redcliffe
Date/Time
EST
Temp
°C
App
Temp
°C
Dew
Point
°C
Rel
Hum
%
Delta-T
°C
Wind Press
QNH
hPa
Press
MSL
hPa
Rain since
9am
mm
Dir  Spd
km/h
Gust
km/h
Spd
kts
Gust
kts
29/03:30pm 21.9 18.5 14.8 64 4.2 NNE 26 30 14 16 1017.8 1017.8 0.0
29/03:00pm 22.2 19.0 14.3 61 4.6 NNE 24 28 13 15 1017.7 1017.7 0.0
29/02:30pm 22.3 19.2 14.4 61 4.6 NNE 24 28 13 15 1017.8 1017.8 0.0
29/02:00pm 22.5 19.2 14.1 59 4.9 NNE 24 28 13 15 1017.8 1017.8 0.0
29/01:30pm 22.8 19.7 14.6 60 4.8 NNE 24 28 13 15 1018.0 1018.0 0.0
29/01:00pm 23.2 22.0 13.9 56 5.4 NE 13 17 7 9 1018.4 1018.4 0.0
29/12:30pm 23.1 22.7 15.2 61 4.7 ENE 11 13 6 7 1019.0 1019.0 0.0
29/12:00pm 22.5 21.8 14.4 60 4.7 ENE 11 13 6 7 1019.6 1019.6 0.0
29/11:30am 21.9 21.2 14.3 62 4.4 NNE 11 15 6 8 1020.3 1020.3 0.0
29/11:00am 21.3 20.5 14.0 63 4.2 NE 11 13 6 7 1020.8 1020.8 0.0
29/10:30am 21.8 21.4 15.2 66 3.9 NE 11 13 6 7 1021.3 1021.3 0.0
29/10:00am 20.6 20.4 13.6 64 4.0 NE 7 9 4 5 1021.7 1021.7 0.0
29/09:30am 20.7 20.2 13.9 65 3.9 NNE 9 15 5 8 1022.0 1022.0 0.0
29/09:00am 19.9 20.4 14.0 69 3.4 SE 4 7 2 4 1022.0 1022.0 0.0
29/08:30am 17.8 17.8 13.7 77 2.3 SSW 6 7 3 4 1021.8 1021.8 0.0
29/08:00am 16.2 15.9 13.3 83 1.6 SW 7 9 4 5 1022.0 1022.0 0.0
29/07:30am 15.1 16.0 12.8 86 1.3 CALM 0 0 0 0 1021.8 1021.8 0.0
29/07:00am 14.6 14.7 12.8 89 1.0 WSW 4 7 2 4 1021.7 1021.7 0.0
29/06:30am 14.5 14.1 12.4 87 1.1 W 6 7 3 4 1021.7 1021.7 0.0
29/06:00am 15.2 16.1 12.9 86 1.3 CALM 0 0 0 0 1021.8 1021.8 0.0
29/05:30am 15.1 15.9 12.6 85 1.4 CALM 0 0 0 0 1021.5 1021.5 0.0
29/05:00am 15.0 14.6 12.9 87 1.2 W 7 11 4 6 1021.4 1021.4 0.0
29/04:30am 15.5 14.8 13.3 87 1.2 NW 9 13 5 7 1021.3 1021.3 0.0
29/04:00am 15.7 15.1 13.4 86 1.3 WNW 9 13 5 7 1021.6 1021.6 0.0
29/03:30am 16.0 15.4 13.5 85 1.4 NW 9 13 5 7 1021.7 1021.7 0.0
29/03:00am 15.9 14.9 13.4 85 1.4 WNW 11 13 6 7 1021.9 1021.9 0.0
29/02:30am 16.5 15.7 14.0 85 1.4 NW 11 13 6 7 1022.1 1022.1 0.0
29/02:00am 16.6 15.3 13.7 83 1.6 NW 13 17 7 9 1022.4 1022.4 0.0
29/01:30am 16.9 16.0 13.8 82 1.8 NW 11 13 6 7 1022.8 1022.8 0.0
29/01:00am 17.0 17.0 14.1 83 1.6 NW 7 11 4 6 1022.8 1022.8 0.0
29/12:30am 16.7 16.6 14.0 84 1.5 NW 7 9 4 5 1023.1 1023.1 0.0
29/12:00am 17.1 16.8 14.4 84 1.5 NNW 9 13 5 7 1023.3 1023.3 0.0
 
Date/Time
EST
Temp
°C
App
Temp
°C
Dew
Point
°C
Rel
Hum
%
Delta-T
°C
Wind Press
QNH
hPa
Press
MSL
hPa
Rain since
9am
mm
Dir  Spd
km/h
Gust
km/h
Spd
kts
Gust
kts
28/11:30pm 17.1 16.4 14.4 84 1.5 NNW 11 13 6 7 1023.6 1023.6 0.0
28/11:00pm 17.4 16.4 14.7 84 1.6 N 13 15 7 8 1023.6 1023.6 0.0
28/10:30pm 17.0 16.9 13.9 82 1.8 NW 7 9 4 5 1023.9 1023.9 0.0
28/10:00pm 17.0 16.6 14.1 83 1.6 NW 9 11 5 6 1023.8 1023.8 0.0
28/09:30pm 17.0 16.2 14.1 83 1.7 NW 11 15 6 8 1024.0 1024.0 0.0
28/09:00pm 17.3 16.6 14.2 82 1.8 NNW 11 13 6 7 1024.0 1024.0 0.0
28/08:30pm 17.9 17.7 14.8 82 1.8 N 9 13 5 7 1023.9 1023.9 0.0
28/08:00pm 18.1 17.9 14.8 81 1.9 N 9 13 5 7 1023.6 1023.6 0.0
28/07:30pm 18.5 18.0 15.0 80 2.0 N 11 15 6 8 1023.4 1023.4 0.0
28/07:00pm 18.6 17.9 15.3 81 1.9 N 13 15 7 8 1023.1 1023.1 0.0
28/06:30pm 19.0 18.2 15.1 78 2.3 N 13 15 7 8 1023.1 1023.1 0.0
28/06:00pm 19.5 18.0 14.3 72 3.0 N 15 17 8 9 1023.0 1023.0 0.0
28/05:30pm 19.8 18.7 14.2 70 3.2 NNE 13 15 7 8 1022.7 1022.7 0.0
28/05:00pm 20.1 18.5 14.0 68 3.5 NNE 15 17 8 9 1022.8 1022.8 0.0
28/04:30pm 20.5 19.4 14.4 68 3.6 NE 13 13 7 7 1022.7 1022.7 0.0
28/04:00pm 21.0 20.7 14.4 66 3.8 NE 9 11 5 6 1022.5 1022.5 0.0
28/03:30pm 21.3 20.7 14.5 65 4.0 ENE 11 13 6 7 1022.5 1022.5 0.0
28/03:00pm 21.2 20.2 14.6 66 3.9 ENE 13 17 7 9 1022.3 1022.3 0.0
28/02:30pm 21.0 20.5 14.9 68 3.6 E 11 13 6 7 1022.3 1022.3 0.0
28/02:00pm 20.8 20.8 14.2 66 3.8 E 7 9 4 5 1022.4 1022.4 0.0
28/01:30pm 22.0 22.1 14.4 62 4.5 E 7 7 4 4 1022.5 1022.5 0.0
28/01:00pm 21.8 21.4 14.2 62 4.4 E 9 11 5 6 1022.8 1022.8 0.0
28/12:30pm 21.4 20.8 13.6 61 4.5 E 9 11 5 6 1023.3 1023.3 0.0
28/12:00pm 21.7 21.6 13.9 61 4.5 SE 7 9 4 5 1023.9 1023.9 0.0
28/11:30am 21.6 21.6 14.3 63 4.3 ESE 7 9 4 5 1024.4 1024.4 0.0
28/11:00am 21.9 21.7 14.8 64 4.2 SE 9 11 5 6 1024.7 1024.7 0.0
28/10:30am 21.2 20.6 13.6 62 4.4 SE 9 11 5 6 1025.2 1025.2 0.0
28/10:00am 20.4 20.1 14.3 68 3.5 SSE 9 11 5 6 1025.3 1025.3 0.0
28/09:30am 18.6 18.3 14.3 76 2.5 S 9 13 5 7 1025.2 1025.2 0.0
28/09:00am 17.5 17.1 14.0 80 2.0 SW 9 11 5 6 1025.1 1025.1 0.0
28/08:30am 16.3 15.7 13.6 84 1.5 SW 9 11 5 6 1024.9 1024.9 0.0
28/08:00am 15.6 15.3 13.3 86 1.3 SW 7 9 4 5 1024.6 1024.6 0.0
28/07:30am 14.3 12.6 12.5 89 1.0 SW 13 15 7 8 1024.8 1024.8 0.0
28/07:00am 14.0 12.3 12.4 90 0.9 SW 13 15 7 8 1024.3 1024.3 0.0
28/06:30am 14.2 13.3 12.6 90 0.9 WSW 9 13 5 7 1024.0 1024.0 0.0
28/06:00am 14.3 13.4 12.5 89 1.0 SW 9 13 5 7 1023.7 1023.7 0.0
28/05:30am 14.6 14.1 12.8 89 1.0 SW 7 9 4 5 1023.4 1023.4 0.0
28/05:00am 14.9 14.5 13.1 89 1.0 SSW 7 9 4 5 1023.3 1023.3 0.0
28/04:30am 15.0 14.7 13.2 89 1.0 SW 7 11 4 6 1023.2 1023.2 0.0
28/04:00am 15.0 14.7 13.2 89 1.0 SW 7 9 4 5 1023.2 1023.2 0.0
28/03:30am 15.0 13.9 13.2 89 1.0 WSW 11 13 6 7 1023.2 1023.2 0.0
28/03:00am 15.2 14.6 13.4 89 1.0 SW 9 11 5 6 1023.5 1023.5 0.0
28/02:30am 15.3 14.7 13.5 89 1.0 WSW 9 11 5 6 1023.6 1023.6 0.0
28/02:00am 15.3 14.3 13.5 89 1.0 WSW 11 15 6 8 1023.7 1023.7 0.0
28/01:30am 15.3 14.7 13.5 89 1.0 WSW 9 13 5 7 1023.7 1023.7 0.0
28/01:00am 15.3 14.7 13.5 89 1.0 WSW 9 11 5 6 1023.7 1023.7 0.0
28/12:30am 15.2 14.6 13.4 89 1.0 WSW 9 11 5 6 1023.8 1023.8 0.0
28/12:00am 15.3 14.3 13.5 89 1.0 WSW 11 13 6 7 1024.0 1024.0 0.0
 
Date/Time
EST
Temp
°C
App
Temp
°C
Dew
Point
°C
Rel
Hum
%
Delta-T
°C
Wind Press
QNH
hPa
Press
MSL
hPa
Rain since
9am
mm
Dir  Spd
km/h
Gust
km/h
Spd
kts
Gust
kts
27/11:30pm 15.5 14.2 13.7 89 1.0 WSW 13 15 7 8 1024.4 1024.4 0.0
27/11:00pm 15.5 14.2 13.7 89 1.0 WSW 13 15 7 8 1024.7 1024.7 0.0
27/10:30pm 15.6 16.8 13.8 89 1.0 CALM 0 0 0 0 1024.6 1024.6 0.0
27/10:00pm 16.0 17.2 13.7 86 1.3 CALM 0 0 0 0 1024.3 1024.3 0.0
27/09:30pm 16.7 16.9 14.2 85 1.4 SE 6 7 3 4 1024.5 1024.5 0.0
27/09:00pm 16.9 17.0 14.5 86 1.4 SE 7 9 4 5 1024.7 1024.7 0.0
27/08:30pm 17.0 17.1 14.5 85 1.4 SSE 7 9 4 5 1024.5 1024.5 0.0
27/08:00pm 17.2 17.0 14.7 85 1.4 SE 9 9 5 5 1024.4 1024.4 0.0
27/07:30pm 17.4 17.1 14.3 82 1.8 SE 9 9 5 5 1024.2 1024.2 0.0
27/07:00pm 17.7 17.6 14.0 79 2.1 ESE 7 11 4 6 1023.9 1023.9 0.0
27/06:30pm 18.7 18.8 14.0 74 2.7 SE 6 9 3 5 1023.8 1023.8 0.0
27/06:00pm 19.0 19.1 13.8 72 3.0 ESE 6 7 3 4 1023.6 1023.6 0.0
27/05:30pm 19.5 19.4 13.9 70 3.2 ESE 7 9 4 5 1023.6 1023.6 0.0
27/05:00pm 19.8 19.6 13.7 68 3.5 ESE 7 9 4 5 1023.4 1023.4 0.0
27/04:30pm 20.1 19.5 13.6 66 3.7 SE 9 9 5 5 1023.4 1023.4 0.0
27/04:00pm 20.7 20.0 13.2 62 4.3 SE 9 9 5 5 1023.1 1023.1 0.0
27/03:30pm 21.0 19.9 13.2 61 4.5 SSE 11 13 6 7 1023.0 1023.0 0.0
27/03:00pm 21.5 20.9 13.4 60 4.6 SSE 9 11 5 6 1023.1 1023.1 0.0
27/02:30pm 21.4 20.9 13.8 62 4.4 SE 9 9 5 5 1023.1 1023.1 0.0
27/02:00pm 20.6 20.5 13.8 65 3.9 ESE 7 9 4 5 1023.3 1023.3 0.0
27/01:30pm 21.0 20.4 13.4 62 4.4 SE 9 11 5 6 1023.3 1023.3 0.0
27/01:00pm 21.7 23.1 14.4 63 4.3 CALM 0 7 0 4 1023.5 1023.5 0.0
27/12:30pm 20.5 20.5 14.2 67 3.7 E 7 11 4 6 1023.8 1023.8 0.0
27/12:00pm 21.0 19.8 13.9 64 4.1 S 13 17 7 9 1024.3 1024.3 0.0
27/11:30am 21.0 20.2 13.9 64 4.1 S 11 13 6 7 1024.6 1024.6 0.0
27/11:00am 20.3 19.8 12.8 62 4.2 SSE 7 11 4 6 1024.9 1024.9 0.0
27/10:30am 19.2 17.0 12.2 64 3.9 S 15 19 8 10 1025.1 1025.1 0.0
27/10:00am 18.7 16.7 12.7 68 3.3 S 15 19 8 10 1025.2 1025.2 0.0
27/09:30am 17.4 14.8 11.9 70 3.0 S 17 22 9 12 1025.4 1025.4 0.0
27/09:00am 17.1 14.4 11.8 71 2.9 S 17 22 9 12 1025.2 1025.2 0.0
27/08:30am 16.3 13.5 11.5 73 2.6 SSW 17 20 9 11 1024.8 1024.8 0.0
27/08:00am 15.5 12.9 10.7 73 2.5 SSW 15 19 8 10 1024.4 1024.4 0.0
27/07:30am 14.6 11.9 10.2 75 2.3 SSW 15 19 8 10 1024.3 1024.3 0.0
27/07:00am 13.9 11.1 9.9 77 2.1 SW 15 17 8 9 1024.2 1024.2 0.0
27/06:30am 13.7 11.2 9.7 77 2.1 SSW 13 17 7 9 1023.7 1023.7 0.0
27/06:00am 13.8 10.9 9.8 77 2.0 SSW 15 20 8 11 1023.6 1023.6 0.0
27/05:30am 13.9 11.4 9.7 76 2.2 SSW 13 19 7 10 1023.2 1023.2 0.0
27/05:00am 13.8 11.3 9.8 77 2.1 SSW 13 17 7 9 1023.0 1023.0 0.0
27/04:30am 13.9 11.5 10.1 78 2.0 SW 13 17 7 9 1022.8 1022.8 0.0
27/04:00am 14.3 11.9 10.1 76 2.2 SW 13 17 7 9 1022.8 1022.8 0.0
27/03:30am 14.6 11.9 10.4 76 2.2 SSW 15 19 8 10 1022.8 1022.8 0.0
27/03:00am 14.8 12.6 10.8 77 2.1 SSW 13 17 7 9 1022.9 1022.9 0.0
27/02:30am 14.4 12.4 11.4 82 1.6 SSW 13 17 7 9 1023.0 1023.0 0.0
27/02:00am 14.3 11.9 11.5 83 1.5 SW 15 19 8 10 1023.0 1023.0 0.0
27/01:30am 14.4 12.5 11.7 84 1.4 SW 13 15 7 8 1023.0 1023.0 0.0
27/01:00am 14.5 12.6 11.8 84 1.4 SW 13 15 7 8 1022.9 1022.9 0.0
27/12:30am 14.9 13.9 12.2 84 1.5 WSW 9 13 5 7 1022.9 1022.9 0.0
27/12:00am 15.0 13.7 12.5 85 1.4 SW 11 13 6 7 1023.0 1023.0 0.0
 
Date/Time
EST
Temp
°C
App
Temp
°C
Dew
Point
°C
Rel
Hum
%
Delta-T
°C
Wind Press
QNH
hPa
Press
MSL
hPa
Rain since
9am
mm
Dir  Spd
km/h
Gust
km/h
Spd
kts
Gust
kts
26/11:30pm 14.7 13.0 12.6 87 1.1 SW 13 15 7 8 1023.1 1023.1 0.0
26/11:00pm 14.8 13.2 12.7 87 1.1 WSW 13 15 7 8 1023.2 1023.2 0.0
26/10:30pm 15.0 14.2 12.9 87 1.2 WSW 9 13 5 7 1023.2 1023.2 0.0
26/10:00pm 15.1 14.3 12.8 86 1.3 WSW 9 11 5 6 1023.3 1023.3 0.0
26/09:30pm 15.3 14.8 12.8 85 1.4 W 7 11 4 6 1023.2 1023.2 0.0
26/09:00pm 15.8 15.1 13.3 85 1.4 WSW 9 11 5 6 1022.8 1022.8 0.0
26/08:30pm 16.1 15.8 13.4 84 1.5 SW 7 9 4 5 1022.5 1022.5 0.0
26/08:00pm 16.7 16.6 13.4 81 1.8 SW 6 7 3 4 1022.3 1022.3 0.0
26/07:30pm 17.2 16.9 13.3 78 2.2 SW 7 7 4 4 1022.2 1022.2 0.0
26/07:00pm 17.7 17.7 13.6 77 2.3 SSE 6 7 3 4 1021.8 1021.8 0.0
26/06:30pm 18.7 17.8 13.6 72 2.9 SSE 11 13 6 7 1021.5 1021.5 0.0
26/06:00pm 19.4 18.1 13.8 70 3.2 SE 13 15 7 8 1021.0 1021.0 0.0
26/05:30pm 19.4 18.5 14.9 75 2.6 SE 13 17 7 9 1020.5 1020.5 0.0
26/05:00pm 19.8 18.1 13.5 67 3.6 ESE 15 17 8 9 1020.2 1020.2 0.0
26/04:30pm 19.9 18.0 13.1 65 3.9 ESE 15 19 8 10 1020.0 1020.0 0.0
26/04:00pm 20.6 18.4 12.1 58 4.7 ESE 15 17 8 9 1019.9 1019.9 0.0

Latest Capital City Observations: Canberra | Sydney | Melbourne | Brisbane | Adelaide | Perth | Hobart | Darwin

Other Formats:

Comma delimited format used in spreadsheet applications
http://www.bom.gov.au/fwo/IDQ60901/IDQ60901.95591.axf

JavaScript Object Notation format (JSON) in row-major order
http://www.bom.gov.au/fwo/IDQ60901/IDQ60901.95591.json